Eastern Dawn — WDE4132 — position and weather

sailwx.info

Track history (hours):
 
Tides and Currents Weather Stations Pressure Air Temp Water Temp Dewpoint Dewpoint Depression Visibility Wind Speed Wind Dir Waves Ship Positions

Eastern Dawn

Owner: EASTERN BARGE SERVICES INC, SYOSSET, NY. More information available from US FCC via Universal Licensing System and Coast Guard Vessel Documentation Center.

Last reported at 2017-Dec-11 14:15 UTC. Time now 2017-Dec-12 20:07 UTC.
Position N 40°35' W 074°13'.

Length 14 m; draft 2.5 m.

Type: Towing. MMSI: 367349170.

Date/timePositionNaut miles runAvg speedWind from/ knotsBaromVisibWave heightAir tempDewpointWater temp
2017-Dec-11 14:15N 40°35' W 074°13'2 8.2
2017-Dec-11 14:00N 40°37' W 074°12'3 6.7
2017-Dec-11 13:30N 40°39' W 074°08'4 7.5
2017-Dec-11 13:00N 40°40' W 074°04'5 9.2
2017-Dec-11 12:31N 40°43' W 073°59'5 9.9
2017-Dec-11 12:00N 40°47' W 073°55'4 8.6
2017-Dec-11 11:30N 40°48' W 073°50'4 0.3
2017-Dec-10 21:15N 40°52' W 073°49'1 2.1
2017-Dec-10 20:48N 40°51' W 073°49'1 4.6
2017-Dec-10 20:29N 40°50' W 073°48'1 2.7
2017-Dec-10 19:59N 40°48' W 073°47'3 6.2
2017-Dec-10 19:30N 40°48' W 073°51'4 7.3
2017-Dec-10 18:59N 40°47' W 073°56'4 8.8
2017-Dec-10 18:30N 40°43' W 073°58'4 7.0
2017-Dec-10 18:00N 40°40' W 074°01'0 0.3
2017-Dec-10 17:31N 40°40' W 074°01'0 0.0
2017-Dec-10 17:01N 40°40' W 074°01'0 0.0
2017-Dec-10 16:30N 40°40' W 074°01'0 0.0
2017-Dec-10 16:00N 40°40' W 074°01'0 0.0
2017-Dec-10 15:31N 40°40' W 074°01'0 0.0
2017-Dec-10 15:01N 40°40' W 074°01'0 0.0
2017-Dec-10 14:31N 40°40' W 074°01'0 0.0
2017-Dec-10 14:00N 40°40' W 074°01'0 0.0
2017-Dec-10 13:30N 40°40' W 074°01'0 0.0
2017-Dec-10 13:00N 40°40' W 074°01'0 0.0
2017-Dec-10 12:30N 40°40' W 074°01'0 0.0
2017-Dec-10 12:01N 40°40' W 074°01'0 0.0
2017-Dec-10 11:31N 40°40' W 074°01'0 0.0
2017-Dec-10 11:00N 40°40' W 074°01'0 0.0
2017-Dec-10 10:30N 40°40' W 074°01'1 1.1
2017-Dec-10 10:01N 40°40' W 074°01'4 7.0
2017-Dec-10 09:30N 40°39' W 074°06'4 7.9
2017-Dec-10 09:00N 40°39' W 074°11'3 6.2
2017-Dec-10 08:30N 40°36' W 074°12'3 6.1
2017-Dec-10 07:56N 40°33' W 074°15'4 0.4
2017-Dec-09 23:59N 40°36' W 074°12'3 6.9
2017-Dec-09 23:30N 40°39' W 074°10'4 7.2
2017-Dec-09 23:00N 40°39' W 074°05'4 8.5
2017-Dec-09 22:30N 40°41' W 074°01'5 9.6
2017-Dec-09 22:00N 40°45' W 073°57'5 9.5
2017-Dec-09 21:30N 40°48' W 073°52'5 0.3
2017-Dec-09 07:11N 40°52' W 073°49'1 2.5
2017-Dec-09 06:51N 40°51' W 073°49'2 4.8
2017-Dec-09 06:26N 40°49' W 073°47'2 2.7
2017-Dec-09 05:47N 40°48' W 073°49'2 7.4
2017-Dec-09 05:30N 40°48' W 073°52'4 7.8
2017-Dec-09 05:00N 40°46' W 073°57'4 9.0
2017-Dec-09 04:30N 40°42' W 073°60'4 7.5
2017-Dec-09 04:01N 40°39' W 074°02'0 0.1
2017-Dec-09 03:30N 40°39' W 074°02'0 0.0
2017-Dec-09 03:00N 40°39' W 074°02'0 0.1
2017-Dec-09 02:30N 40°39' W 074°02'0 0.0
2017-Dec-09 02:01N 40°39' W 074°02'0 0.1
2017-Dec-09 01:30N 40°39' W 074°02'0 0.1
2017-Dec-09 01:01N 40°39' W 074°02'0 0.0
2017-Dec-09 00:30N 40°39' W 074°02'0 0.0
2017-Dec-09 00:00N 40°39' W 074°02'0 0.0
2017-Dec-08 23:30N 40°39' W 074°02'0 0.0
2017-Dec-08 23:01N 40°39' W 074°02'0 0.0
2017-Dec-08 22:31N 40°39' W 074°02'0 0.0
2017-Dec-08 22:01N 40°39' W 074°02'0 0.0
2017-Dec-08 21:30N 40°39' W 074°02'3 6.7
2017-Dec-08 21:00N 40°39' W 074°07'4 7.0
2017-Dec-08 20:29N 40°38' W 074°11'3 5.9
2017-Dec-08 19:59N 40°36' W 074°12'4 0.5
2017-Dec-08 12:46N 40°33' W 074°15'2 6.0
2017-Dec-08 12:25N 40°34' W 074°13'3 7.5
2017-Dec-08 12:00N 40°37' W 074°12'3 6.1
2017-Dec-08 11:29N 40°39' W 074°09'4 7.3
2017-Dec-08 11:00N 40°39' W 074°04'3 5.7
2017-Dec-08 10:31N 40°40' W 074°01'0 0.1
2017-Dec-08 10:01N 40°40' W 074°01'0 0.0
2017-Dec-08 09:31N 40°40' W 074°01'0 0.0
2017-Dec-08 09:00N 40°40' W 074°01'0 0.0
2017-Dec-08 08:30N 40°40' W 074°01'0 0.0
2017-Dec-08 08:01N 40°40' W 074°01'0 0.0
2017-Dec-08 07:30N 40°40' W 074°01'0 0.0
2017-Dec-08 07:01N 40°40' W 074°01'0 0.0
2017-Dec-08 06:31N 40°40' W 074°01'0 0.0
2017-Dec-08 06:01N 40°40' W 074°01'0 0.0
2017-Dec-08 05:31N 40°40' W 074°01'0 0.0
2017-Dec-08 05:01N 40°40' W 074°01'0 0.0
2017-Dec-08 04:30N 40°40' W 074°01'0 0.0
2017-Dec-08 04:01N 40°40' W 074°01'0 0.0
2017-Dec-08 03:30N 40°40' W 074°01'0 0.0
2017-Dec-08 03:00N 40°40' W 074°01'0 0.0
2017-Dec-08 02:31N 40°40' W 074°01'0 0.0
2017-Dec-08 02:01N 40°40' W 074°01'0 0.0
2017-Dec-08 01:31N 40°40' W 074°01'0 0.1
2017-Dec-08 01:00N 40°40' W 074°01'2 3.5
2017-Dec-08 00:31N 40°42' W 074°02'510.2
2017-Dec-08 00:00N 40°47' W 073°60'611.0
2017-Dec-07 23:29N 40°52' W 073°57'  
2017-Dec-04 10:31N 40°40' W 074°01'0 0.0
2017-Dec-04 10:01N 40°40' W 074°01'0 0.0
2017-Dec-04 09:31N 40°40' W 074°01'0 0.0
2017-Dec-04 09:01N 40°40' W 074°01'0 0.0
2017-Dec-04 08:30N 40°40' W 074°01'0 0.0
2017-Dec-04 08:01N 40°40' W 074°01'0 0.0
2017-Dec-04 07:31N 40°40' W 074°01'0 0.0
2017-Dec-04 07:00N 40°40' W 074°01'0 0.0
2017-Dec-04 06:30N 40°40' W 074°01'0 0.0
2017-Dec-04 06:00N 40°40' W 074°01'0 0.9
2017-Dec-04 05:31N 40°40' W 074°01'1 1.4
2017-Dec-04 05:00N 40°40' W 074°00'1 1.5
2017-Dec-04 04:31N 40°40' W 074°01'1 1.7
2017-Dec-04 04:01N 40°39' W 074°02'0 0.0
2017-Dec-04 03:30N 40°39' W 074°02'0 0.0
2017-Dec-04 03:01N 40°39' W 074°02'0 0.0
2017-Dec-04 02:31N 40°39' W 074°02'0 0.0
2017-Dec-04 02:01N 40°39' W 074°02'0 0.2
2017-Dec-04 01:30N 40°39' W 074°02'0 0.0
2017-Dec-04 01:01N 40°39' W 074°02'0 0.0
2017-Dec-04 00:30N 40°39' W 074°02'0 0.0
2017-Dec-04 00:00N 40°39' W 074°02'0 0.0
2017-Dec-03 23:30N 40°39' W 074°02'0 0.4
2017-Dec-03 23:00N 40°39' W 074°02'3 5.9
2017-Dec-03 22:29N 40°39' W 074°06'3 5.6
2017-Dec-03 22:01N 40°39' W 074°10'3 5.7
2017-Dec-03 21:30N 40°36' W 074°12'4 0.4
2017-Dec-03 09:21N 40°33' W 074°15'2 6.1
2017-Dec-03 09:00N 40°34' W 074°13'4 7.3
2017-Dec-03 08:30N 40°38' W 074°12'4 7.6
2017-Dec-03 08:00N 40°39' W 074°07'4 8.6
2017-Dec-03 07:31N 40°41' W 074°02'4 8.9
2017-Dec-03 07:00N 40°44' W 073°58'5 9.6
2017-Dec-03 06:31N 40°48' W 073°55'1 0.3
2017-Dec-03 04:41N 40°48' W 073°54'0 0.0
2017-Dec-03 04:18N 40°48' W 073°54'0 0.0
2017-Dec-03 03:55N 40°48' W 073°54'0 0.0
2017-Dec-03 03:30N 40°48' W 073°54'0 0.0
2017-Dec-03 02:27N 40°48' W 073°54'0 0.0
2017-Dec-03 01:46N 40°48' W 073°54'0 0.0
2017-Dec-03 01:28N 40°48' W 073°54'0 0.0
2017-Dec-02 23:14N 40°48' W 073°54'0 0.0
2017-Dec-02 21:38N 40°48' W 073°54'0 0.0
2017-Dec-02 21:25N 40°48' W 073°54'0 0.0
2017-Dec-02 20:12N 40°48' W 073°54'0 0.0
2017-Dec-02 19:53N 40°48' W 073°54'1 1.9
2017-Dec-02 19:30N 40°48' W 073°55'3 5.3
2017-Dec-02 19:00N 40°46' W 073°57'3 5.1
2017-Dec-02 18:30N 40°43' W 073°58'2 4.9
2017-Dec-02 18:01N 40°41' W 074°00'3 5.2
2017-Dec-02 17:31N 40°39' W 074°02'0 0.2
2017-Dec-02 17:00N 40°39' W 074°02'0 0.0
2017-Dec-02 16:31N 40°39' W 074°02'0 0.0
2017-Dec-02 16:01N 40°39' W 074°02'0 0.0
2017-Dec-02 15:30N 40°39' W 074°02'0 0.0
2017-Dec-02 15:01N 40°39' W 074°02'0 0.0
2017-Dec-02 14:31N 40°39' W 074°02'0 0.0
2017-Dec-02 14:01N 40°39' W 074°02'0 0.0
2017-Dec-02 13:31N 40°39' W 074°02'0 0.0
2017-Dec-02 13:00N 40°39' W 074°02'0 0.1
2017-Dec-02 12:31N 40°39' W 074°02'0 0.8
2017-Dec-02 12:01N 40°39' W 074°03'2 3.7
2017-Dec-02 11:30N 40°39' W 074°05'0 0.0
2017-Dec-02 11:00N 40°39' W 074°05'0 0.0
2017-Dec-02 10:30N 40°39' W 074°05'0 0.0
2017-Dec-02 10:00N 40°39' W 074°05'0 0.0
2017-Dec-02 09:31N 40°39' W 074°05'0 0.0
2017-Dec-02 09:01N 40°39' W 074°05'0 0.0
2017-Dec-02 08:30N 40°39' W 074°05'0 0.0
2017-Dec-02 08:01N 40°39' W 074°05'0 0.0
2017-Dec-02 07:31N 40°39' W 074°05'0 0.0
2017-Dec-02 07:00N 40°39' W 074°05'0 0.0
2017-Dec-02 06:30N 40°39' W 074°05'0 0.0
2017-Dec-02 06:00N 40°39' W 074°05'0 0.0
2017-Dec-02 05:30N 40°39' W 074°05'0 0.0
2017-Dec-02 05:01N 40°39' W 074°05'0 0.0
2017-Dec-02 04:30N 40°39' W 074°05'0 0.0
2017-Dec-02 04:00N 40°39' W 074°05'0 0.0
2017-Dec-02 03:30N 40°39' W 074°05'0 0.0
2017-Dec-02 03:00N 40°39' W 074°05'0 0.0
2017-Dec-02 02:30N 40°39' W 074°05'0 0.0
2017-Dec-02 02:01N 40°39' W 074°05'0 0.0
2017-Dec-02 01:30N 40°39' W 074°05'0 0.0
2017-Dec-02 01:00N 40°39' W 074°05'0 0.0
2017-Dec-02 00:30N 40°39' W 074°05'0 0.0
2017-Dec-02 00:00N 40°39' W 074°05'0 0.0
2017-Dec-01 23:30N 40°39' W 074°05'0 0.0
2017-Dec-01 23:00N 40°39' W 074°05'0 0.8
2017-Dec-01 22:30N 40°39' W 074°05'3 5.4
2017-Dec-01 22:00N 40°41' W 074°02'3 5.5
2017-Dec-01 21:31N 40°43' W 073°59'2 4.7
2017-Dec-01 21:00N 40°44' W 073°57'1 1.2
2017-Dec-01 20:26N 40°44' W 073°56'0 0.0
2017-Dec-01 20:00N 40°44' W 073°56'0 0.0
2017-Dec-01 19:30N 40°44' W 073°56'0 0.0
2017-Dec-01 19:00N 40°44' W 073°56'0 0.0
2017-Dec-01 18:22N 40°44' W 073°56'0 0.0
2017-Dec-01 17:58N 40°44' W 073°56'0 0.0
2017-Dec-01 17:26N 40°44' W 073°56'0 0.0
2017-Dec-01 16:55N 40°44' W 073°56'0 0.0
2017-Dec-01 16:27N 40°44' W 073°56'0 0.0
2017-Dec-01 15:52N 40°44' W 073°56'0 0.0
2017-Dec-01 15:30N 40°44' W 073°56'0 0.0
2017-Dec-01 15:00N 40°44' W 073°56'0 0.0
2017-Dec-01 14:29N 40°44' W 073°56'  
Track history (hours):
 
Tides and Currents Weather Stations Pressure Air Temp Water Temp Dewpoint Dewpoint Depression Visibility Wind Speed Wind Dir Waves Ship Positions

Eastern Dawn

Owner: EASTERN BARGE SERVICES INC, SYOSSET, NY. More information available from US FCC via Universal Licensing System and Coast Guard Vessel Documentation Center.

Last reported at 2017-Dec-11 14:15 UTC. Time now 2017-Dec-12 20:07 UTC.
Position N 40°35' W 074°13'.

Length 14 m; draft 2.5 m.

Type: Towing. MMSI: 367349170.

Date/timePositionNaut miles runAvg speedWind from/ knotsBaromVisibWave heightAir tempDewpointWater temp
2017-Dec-11 14:15N 40°35' W 074°13'2 8.2
2017-Dec-11 14:00N 40°37' W 074°12'3 6.7
2017-Dec-11 13:30N 40°39' W 074°08'4 7.5
2017-Dec-11 13:00N 40°40' W 074°04'5 9.2
2017-Dec-11 12:31N 40°43' W 073°59'5 9.9
2017-Dec-11 12:00N 40°47' W 073°55'4 8.6
2017-Dec-11 11:30N 40°48' W 073°50'4 0.3
2017-Dec-10 21:15N 40°52' W 073°49'1 2.1
2017-Dec-10 20:48N 40°51' W 073°49'1 4.6
2017-Dec-10 20:29N 40°50' W 073°48'1 2.7
2017-Dec-10 19:59N 40°48' W 073°47'3 6.2
2017-Dec-10 19:30N 40°48' W 073°51'4 7.3
2017-Dec-10 18:59N 40°47' W 073°56'4 8.8
2017-Dec-10 18:30N 40°43' W 073°58'4 7.0
2017-Dec-10 18:00N 40°40' W 074°01'0 0.3
2017-Dec-10 17:31N 40°40' W 074°01'0 0.0
2017-Dec-10 17:01N 40°40' W 074°01'0 0.0
2017-Dec-10 16:30N 40°40' W 074°01'0 0.0
2017-Dec-10 16:00N 40°40' W 074°01'0 0.0
2017-Dec-10 15:31N 40°40' W 074°01'0 0.0
2017-Dec-10 15:01N 40°40' W 074°01'0 0.0
2017-Dec-10 14:31N 40°40' W 074°01'0 0.0
2017-Dec-10 14:00N 40°40' W 074°01'0 0.0
2017-Dec-10 13:30N 40°40' W 074°01'0 0.0
2017-Dec-10 13:00N 40°40' W 074°01'0 0.0
2017-Dec-10 12:30N 40°40' W 074°01'0 0.0
2017-Dec-10 12:01N 40°40' W 074°01'0 0.0
2017-Dec-10 11:31N 40°40' W 074°01'0 0.0
2017-Dec-10 11:00N 40°40' W 074°01'0 0.0
2017-Dec-10 10:30N 40°40' W 074°01'1 1.1
2017-Dec-10 10:01N 40°40' W 074°01'4 7.0
2017-Dec-10 09:30N 40°39' W 074°06'4 7.9
2017-Dec-10 09:00N 40°39' W 074°11'3 6.2
2017-Dec-10 08:30N 40°36' W 074°12'3 6.1
2017-Dec-10 07:56N 40°33' W 074°15'4 0.4
2017-Dec-09 23:59N 40°36' W 074°12'3 6.9
2017-Dec-09 23:30N 40°39' W 074°10'4 7.2
2017-Dec-09 23:00N 40°39' W 074°05'4 8.5
2017-Dec-09 22:30N 40°41' W 074°01'5 9.6
2017-Dec-09 22:00N 40°45' W 073°57'5 9.5
2017-Dec-09 21:30N 40°48' W 073°52'5 0.3
2017-Dec-09 07:11N 40°52' W 073°49'1 2.5
2017-Dec-09 06:51N 40°51' W 073°49'2 4.8
2017-Dec-09 06:26N 40°49' W 073°47'2 2.7
2017-Dec-09 05:47N 40°48' W 073°49'2 7.4
2017-Dec-09 05:30N 40°48' W 073°52'4 7.8
2017-Dec-09 05:00N 40°46' W 073°57'4 9.0
2017-Dec-09 04:30N 40°42' W 073°60'4 7.5
2017-Dec-09 04:01N 40°39' W 074°02'0 0.1
2017-Dec-09 03:30N 40°39' W 074°02'0 0.0
2017-Dec-09 03:00N 40°39' W 074°02'0 0.1
2017-Dec-09 02:30N 40°39' W 074°02'0 0.0
2017-Dec-09 02:01N 40°39' W 074°02'0 0.1
2017-Dec-09 01:30N 40°39' W 074°02'0 0.1
2017-Dec-09 01:01N 40°39' W 074°02'0 0.0
2017-Dec-09 00:30N 40°39' W 074°02'0 0.0
2017-Dec-09 00:00N 40°39' W 074°02'0 0.0
2017-Dec-08 23:30N 40°39' W 074°02'0 0.0
2017-Dec-08 23:01N 40°39' W 074°02'0 0.0
2017-Dec-08 22:31N 40°39' W 074°02'0 0.0
2017-Dec-08 22:01N 40°39' W 074°02'0 0.0
2017-Dec-08 21:30N 40°39' W 074°02'3 6.7
2017-Dec-08 21:00N 40°39' W 074°07'4 7.0
2017-Dec-08 20:29N 40°38' W 074°11'3 5.9
2017-Dec-08 19:59N 40°36' W 074°12'4 0.5
2017-Dec-08 12:46N 40°33' W 074°15'2 6.0
2017-Dec-08 12:25N 40°34' W 074°13'3 7.5
2017-Dec-08 12:00N 40°37' W 074°12'3 6.1
2017-Dec-08 11:29N 40°39' W 074°09'4 7.3
2017-Dec-08 11:00N 40°39' W 074°04'3 5.7
2017-Dec-08 10:31N 40°40' W 074°01'0 0.1
2017-Dec-08 10:01N 40°40' W 074°01'0 0.0
2017-Dec-08 09:31N 40°40' W 074°01'0 0.0
2017-Dec-08 09:00N 40°40' W 074°01'0 0.0
2017-Dec-08 08:30N 40°40' W 074°01'0 0.0
2017-Dec-08 08:01N 40°40' W 074°01'0 0.0
2017-Dec-08 07:30N 40°40' W 074°01'0 0.0
2017-Dec-08 07:01N 40°40' W 074°01'0 0.0
2017-Dec-08 06:31N 40°40' W 074°01'0 0.0
2017-Dec-08 06:01N 40°40' W 074°01'0 0.0
2017-Dec-08 05:31N 40°40' W 074°01'0 0.0
2017-Dec-08 05:01N 40°40' W 074°01'0 0.0
2017-Dec-08 04:30N 40°40' W 074°01'0 0.0
2017-Dec-08 04:01N 40°40' W 074°01'0 0.0
2017-Dec-08 03:30N 40°40' W 074°01'0 0.0
2017-Dec-08 03:00N 40°40' W 074°01'0 0.0
2017-Dec-08 02:31N 40°40' W 074°01'0 0.0
2017-Dec-08 02:01N 40°40' W 074°01'0 0.0
2017-Dec-08 01:31N 40°40' W 074°01'0 0.1
2017-Dec-08 01:00N 40°40' W 074°01'2 3.5
2017-Dec-08 00:31N 40°42' W 074°02'510.2
2017-Dec-08 00:00N 40°47' W 073°60'611.0
2017-Dec-07 23:29N 40°52' W 073°57'  
2017-Dec-04 10:31N 40°40' W 074°01'0 0.0
2017-Dec-04 10:01N 40°40' W 074°01'0 0.0
2017-Dec-04 09:31N 40°40' W 074°01'0 0.0
2017-Dec-04 09:01N 40°40' W 074°01'0 0.0
2017-Dec-04 08:30N 40°40' W 074°01'0 0.0
2017-Dec-04 08:01N 40°40' W 074°01'0 0.0
2017-Dec-04 07:31N 40°40' W 074°01'0 0.0
2017-Dec-04 07:00N 40°40' W 074°01'0 0.0
2017-Dec-04 06:30N 40°40' W 074°01'0 0.0
2017-Dec-04 06:00N 40°40' W 074°01'0 0.9
2017-Dec-04 05:31N 40°40' W 074°01'1 1.4
2017-Dec-04 05:00N 40°40' W 074°00'1 1.5
2017-Dec-04 04:31N 40°40' W 074°01'1 1.7
2017-Dec-04 04:01N 40°39' W 074°02'0 0.0
2017-Dec-04 03:30N 40°39' W 074°02'0 0.0
2017-Dec-04 03:01N 40°39' W 074°02'0 0.0
2017-Dec-04 02:31N 40°39' W 074°02'0 0.0
2017-Dec-04 02:01N 40°39' W 074°02'0 0.2
2017-Dec-04 01:30N 40°39' W 074°02'0 0.0
2017-Dec-04 01:01N 40°39' W 074°02'0 0.0
2017-Dec-04 00:30N 40°39' W 074°02'0 0.0
2017-Dec-04 00:00N 40°39' W 074°02'0 0.0
2017-Dec-03 23:30N 40°39' W 074°02'0 0.4
2017-Dec-03 23:00N 40°39' W 074°02'3 5.9
2017-Dec-03 22:29N 40°39' W 074°06'3 5.6
2017-Dec-03 22:01N 40°39' W 074°10'3 5.7
2017-Dec-03 21:30N 40°36' W 074°12'4 0.4
2017-Dec-03 09:21N 40°33' W 074°15'2 6.1
2017-Dec-03 09:00N 40°34' W 074°13'4 7.3
2017-Dec-03 08:30N 40°38' W 074°12'4 7.6
2017-Dec-03 08:00N 40°39' W 074°07'4 8.6
2017-Dec-03 07:31N 40°41' W 074°02'4 8.9
2017-Dec-03 07:00N 40°44' W 073°58'5 9.6
2017-Dec-03 06:31N 40°48' W 073°55'1 0.3
2017-Dec-03 04:41N 40°48' W 073°54'0 0.0
2017-Dec-03 04:18N 40°48' W 073°54'0 0.0
2017-Dec-03 03:55N 40°48' W 073°54'0 0.0
2017-Dec-03 03:30N 40°48' W 073°54'0 0.0
2017-Dec-03 02:27N 40°48' W 073°54'0 0.0
2017-Dec-03 01:46N 40°48' W 073°54'0 0.0
2017-Dec-03 01:28N 40°48' W 073°54'0 0.0
2017-Dec-02 23:14N 40°48' W 073°54'0 0.0
2017-Dec-02 21:38N 40°48' W 073°54'0 0.0
2017-Dec-02 21:25N 40°48' W 073°54'0 0.0
2017-Dec-02 20:12N 40°48' W 073°54'0 0.0
2017-Dec-02 19:53N 40°48' W 073°54'1 1.9
2017-Dec-02 19:30N 40°48' W 073°55'3 5.3
2017-Dec-02 19:00N 40°46' W 073°57'3 5.1
2017-Dec-02 18:30N 40°43' W 073°58'2 4.9
2017-Dec-02 18:01N 40°41' W 074°00'3 5.2
2017-Dec-02 17:31N 40°39' W 074°02'0 0.2
2017-Dec-02 17:00N 40°39' W 074°02'0 0.0
2017-Dec-02 16:31N 40°39' W 074°02'0 0.0
2017-Dec-02 16:01N 40°39' W 074°02'0 0.0
2017-Dec-02 15:30N 40°39' W 074°02'0 0.0
2017-Dec-02 15:01N 40°39' W 074°02'0 0.0
2017-Dec-02 14:31N 40°39' W 074°02'0 0.0
2017-Dec-02 14:01N 40°39' W 074°02'0 0.0
2017-Dec-02 13:31N 40°39' W 074°02'0 0.0
2017-Dec-02 13:00N 40°39' W 074°02'0 0.1
2017-Dec-02 12:31N 40°39' W 074°02'0 0.8
2017-Dec-02 12:01N 40°39' W 074°03'2 3.7
2017-Dec-02 11:30N 40°39' W 074°05'0 0.0
2017-Dec-02 11:00N 40°39' W 074°05'0 0.0
2017-Dec-02 10:30N 40°39' W 074°05'0 0.0
2017-Dec-02 10:00N 40°39' W 074°05'0 0.0
2017-Dec-02 09:31N 40°39' W 074°05'0 0.0
2017-Dec-02 09:01N 40°39' W 074°05'0 0.0
2017-Dec-02 08:30N 40°39' W 074°05'0 0.0
2017-Dec-02 08:01N 40°39' W 074°05'0 0.0
2017-Dec-02 07:31N 40°39' W 074°05'0 0.0
2017-Dec-02 07:00N 40°39' W 074°05'0 0.0
2017-Dec-02 06:30N 40°39' W 074°05'0 0.0
2017-Dec-02 06:00N 40°39' W 074°05'0 0.0
2017-Dec-02 05:30N 40°39' W 074°05'0 0.0
2017-Dec-02 05:01N 40°39' W 074°05'0 0.0
2017-Dec-02 04:30N 40°39' W 074°05'0 0.0
2017-Dec-02 04:00N 40°39' W 074°05'0 0.0
2017-Dec-02 03:30N 40°39' W 074°05'0 0.0
2017-Dec-02 03:00N 40°39' W 074°05'0 0.0
2017-Dec-02 02:30N 40°39' W 074°05'0 0.0
2017-Dec-02 02:01N 40°39' W 074°05'0 0.0
2017-Dec-02 01:30N 40°39' W 074°05'0 0.0
2017-Dec-02 01:00N 40°39' W 074°05'0 0.0
2017-Dec-02 00:30N 40°39' W 074°05'0 0.0
2017-Dec-02 00:00N 40°39' W 074°05'0 0.0
2017-Dec-01 23:30N 40°39' W 074°05'0 0.0
2017-Dec-01 23:00N 40°39' W 074°05'0 0.8
2017-Dec-01 22:30N 40°39' W 074°05'3 5.4
2017-Dec-01 22:00N 40°41' W 074°02'3 5.5
2017-Dec-01 21:31N 40°43' W 073°59'2 4.7
2017-Dec-01 21:00N 40°44' W 073°57'1 1.2
2017-Dec-01 20:26N 40°44' W 073°56'0 0.0
2017-Dec-01 20:00N 40°44' W 073°56'0 0.0
2017-Dec-01 19:30N 40°44' W 073°56'0 0.0
2017-Dec-01 19:00N 40°44' W 073°56'0 0.0
2017-Dec-01 18:22N 40°44' W 073°56'0 0.0
2017-Dec-01 17:58N 40°44' W 073°56'0 0.0
2017-Dec-01 17:26N 40°44' W 073°56'0 0.0
2017-Dec-01 16:55N 40°44' W 073°56'0 0.0
2017-Dec-01 16:27N 40°44' W 073°56'0 0.0
2017-Dec-01 15:52N 40°44' W 073°56'0 0.0
2017-Dec-01 15:30N 40°44' W 073°56'0 0.0
2017-Dec-01 15:00N 40°44' W 073°56'0 0.0
2017-Dec-01 14:29N 40°44' W 073°56'  

Dump ship's entire track history